Time;durP1;ratioP1;P1;durP2;ratioP2;P2;SDS_P1;SDS_P2;PMS_P1;PMS_P2;Temp;Humidity;BMP_temperature;BMP_pressure;BME280_temperature;BME280_humidity;BME280_pressure;Samples;Min_cycle;Max_cycle;Signal;HPM_P1;HPM_P2
2022/06/19 00:02:14;;;;;;;11.63;9.50;;;22.30;99.90;;;;;;5117577;28;20459;-59
2022/06/19 00:04:44;;;;;;;12.47;11.07;;;22.30;99.90;;;;;;5120972;27;20463;-59
2022/06/19 00:07:12;;;;;;;12.37;11.00;;;22.30;99.90;;;;;;5120925;28;20558;-60
2022/06/19 00:09:39;;;;;;;12.13;9.50;;;22.40;99.90;;;;;;5123863;27;20465;-59
2022/06/19 00:12:07;;;;;;;14.53;10.50;;;22.30;99.90;;;;;;5141296;27;20799;-59
2022/06/19 00:14:37;;;;;;;13.30;11.13;;;22.30;99.90;;;;;;5140986;27;20462;-59
2022/06/19 00:17:06;;;;;;;11.57;10.20;;;22.30;99.90;;;;;;5141529;27;20905;-59
2022/06/19 00:19:34;;;;;;;14.30;11.63;;;22.20;99.90;;;;;;5141451;27;20470;-59
2022/06/19 00:22:08;;;;;;;14.13;10.70;;;22.10;99.90;;;;;;5138649;27;20455;-59
2022/06/19 00:24:35;;;;;;;11.50;10.30;;;22.10;99.90;;;;;;5139449;27;20458;-59
2022/06/19 00:27:02;;;;;;;15.70;12.00;;;22.10;99.90;;;;;;5141030;27;20458;-59
2022/06/19 00:29:38;;;;;;;15.60;11.03;;;22.00;99.90;;;;;;5141243;27;20462;-59
2022/06/19 00:32:09;;;;;;;17.93;11.07;;;22.00;99.90;;;;;;5124985;27;20469;-59
2022/06/19 00:34:37;;;;;;;13.37;10.90;;;21.90;99.90;;;;;;5120301;28;20896;-59
2022/06/19 00:37:08;;;;;;;19.33;12.27;;;21.90;99.90;;;;;;5139015;27;20462;-59
2022/06/19 00:39:39;;;;;;;14.43;12.10;;;21.90;99.90;;;;;;5140882;27;20863;-59
2022/06/19 00:42:08;;;;;;;12.73;11.47;;;21.90;99.90;;;;;;5128801;27;20459;-59
2022/06/19 00:44:35;;;;;;;15.80;12.10;;;22.00;99.90;;;;;;5120369;28;20512;-59
2022/06/19 00:47:09;;;;;;;13.40;12.03;;;21.90;99.90;;;;;;5120985;27;20456;-59
2022/06/19 00:49:41;;;;;;;12.97;10.57;;;21.90;99.90;;;;;;5120673;28;20460;-59
2022/06/19 00:52:13;;;;;;;18.03;13.03;;;21.80;99.90;;;;;;5120744;27;20771;-59
2022/06/19 00:54:46;;;;;;;13.10;11.80;;;21.80;99.90;;;;;;5119863;28;20455;-59
2022/06/19 00:57:15;;;;;;;18.10;12.40;;;21.80;99.90;;;;;;5119723;28;20463;-59
2022/06/19 00:59:53;;;;;;;13.27;11.80;;;21.80;99.90;;;;;;5120111;28;20892;-59
2022/06/19 01:02:20;;;;;;;15.10;11.90;;;21.70;99.90;;;;;;5124439;27;20432;-59
2022/06/19 01:04:50;;;;;;;18.00;13.87;;;21.60;99.90;;;;;;5140248;27;20433;-59
2022/06/19 01:07:21;;;;;;;14.97;13.37;;;21.60;99.90;;;;;;5139048;27;20471;-59
2022/06/19 01:09:51;;;;;;;14.13;11.80;;;21.60;99.90;;;;;;5140817;27;20750;-59
2022/06/19 01:12:20;;;;;;;14.60;13.30;;;21.60;99.90;;;;;;5138263;27;20446;-59
2022/06/19 01:14:51;;;;;;;16.13;12.00;;;21.50;99.90;;;;;;5118175;27;20901;-59
2022/06/19 01:17:22;;;;;;;15.33;13.20;;;21.40;99.90;;;;;;5120894;27;20559;-59
2022/06/19 01:19:50;;;;;;;14.07;11.63;;;21.40;99.90;;;;;;5119783;28;20773;-58
2022/06/19 01:22:29;;;;;;;14.73;12.47;;;21.40;99.90;;;;;;5119395;28;20544;-59
2022/06/19 01:25:07;;;;;;;19.53;13.20;;;21.40;99.90;;;;;;5138879;27;20484;-58
2022/06/19 01:30:25;;;;;;;13.30;12.00;;;21.30;99.90;;;;;;5139463;27;20429;-59
2022/06/19 01:32:54;;;;;;;14.73;11.87;;;21.30;99.90;;;;;;5139997;27;20433;-59
2022/06/19 01:35:24;;;;;;;14.83;13.53;;;21.20;99.90;;;;;;5119933;27;20457;-58
2022/06/19 01:37:52;;;;;;;13.47;12.07;;;21.10;99.90;;;;;;5120345;27;20965;-59
2022/06/19 01:40:27;;;;;;;13.37;12.10;;;21.00;99.90;;;;;;5118646;28;20459;-59
2022/06/19 01:42:55;;;;;;;16.57;14.03;;;21.00;1.00;;;;;;5118476;28;20904;-59
2022/06/19 01:45:22;;;;;;;14.60;13.03;;;21.00;1.00;;;;;;5133972;27;20459;-58
2022/06/19 01:47:52;;;;;;;14.50;12.93;;;21.00;1.00;;;;;;5139421;27;20450;-58
2022/06/19 01:50:23;;;;;;;15.03;12.50;;;20.90;1.00;;;;;;5139289;27;20462;-58
2022/06/19 01:52:54;;;;;;;26.43;13.60;;;20.90;1.00;;;;;;5139650;27;20440;-59
2022/06/19 01:55:28;;;;;;;16.27;13.20;;;20.90;1.00;;;;;;5127053;27;20471;-58
2022/06/19 01:57:58;;;;;;;12.90;11.43;;;20.90;1.00;;;;;;5119894;27;20504;-59
2022/06/19 02:00:31;;;;;;;14.33;12.90;;;20.90;1.00;;;;;;5119003;28;20768;-59
2022/06/19 02:03:04;;;;;;;18.10;12.43;;;20.90;1.00;;;;;;5118993;28;20796;-59
2022/06/19 02:05:35;;;;;;;13.80;11.73;;;20.80;1.00;;;;;;5125418;27;20472;-58
2022/06/19 02:08:03;;;;;;;16.77;12.17;;;20.80;1.00;;;;;;5160160;27;20453;-58
2022/06/19 02:10:33;;;;;;;14.23;11.90;;;20.70;1.00;;;;;;5130408;27;20459;-59
2022/06/19 02:13:01;;;;;;;14.80;13.40;;;20.70;1.00;;;;;;5118977;28;20460;-58
2022/06/19 02:15:29;;;;;;;15.00;13.50;;;20.60;1.00;;;;;;5122946;27;20496;-58
2022/06/19 02:18:00;;;;;;;19.37;13.03;;;20.60;1.00;;;;;;5139080;27;20774;-58
2022/06/19 02:20:27;;;;;;;19.13;14.30;;;20.60;1.00;;;;;;5138392;27;20466;-57
2022/06/19 02:22:54;;;;;;;16.10;13.50;;;20.50;1.00;;;;;;5134318;27;20487;-58
2022/06/19 02:25:25;;;;;;;15.17;13.67;;;20.50;1.00;;;;;;5118229;28;20471;-56
2022/06/19 02:27:54;;;;;;;13.40;12.17;;;20.50;1.00;;;;;;5118703;28;20463;-58
2022/06/19 02:30:21;;;;;;;14.70;13.30;;;20.50;1.00;;;;;;5118095;28;20438;-58
2022/06/19 02:32:51;;;;;;;18.63;12.90;;;20.50;1.00;;;;;;5118206;27;20873;-58
2022/06/19 02:35:23;;;;;;;15.67;14.00;;;20.50;1.00;;;;;;5118187;28;20743;-59
2022/06/19 02:37:52;;;;;;;14.20;12.77;;;20.40;1.00;;;;;;5117855;28;20469;-58
2022/06/19 02:40:39;;;;;;;15.20;12.20;;;20.30;1.00;;;;;;5118204;28;20513;-58
2022/06/19 02:43:13;;;;;;;17.30;13.80;;;20.40;1.00;;;;;;5117477;28;20524;-59
2022/06/19 02:45:42;;;;;;;15.63;13.97;;;20.30;1.00;;;;;;5117711;28;20467;-58
2022/06/19 02:48:21;;;;;;;14.53;13.13;;;20.20;1.00;;;;;;5117529;28;20486;-58
2022/06/19 02:50:49;;;;;;;13.53;12.03;;;20.10;1.00;;;;;;5117768;28;20466;-57
2022/06/19 02:53:16;;;;;;;19.43;12.77;;;20.10;1.00;;;;;;5117972;28;20841;-58
2022/06/19 02:55:44;;;;;;;15.50;12.83;;;20.10;1.00;;;;;;5117818;27;20466;-57
2022/06/19 02:58:13;;;;;;;16.77;13.13;;;20.00;1.00;;;;;;5117868;28;20934;-58
2022/06/19 03:00:41;;;;;;;14.73;13.17;;;19.90;1.00;;;;;;5117838;28;20470;-58
2022/06/19 03:03:13;;;;;;;16.83;11.93;;;19.70;1.00;;;;;;5126805;27;20463;-59
2022/06/19 03:05:40;;;;;;;15.03;10.87;;;19.70;1.00;;;;;;5123490;27;20463;-59
2022/06/19 03:08:08;;;;;;;16.30;11.70;;;19.80;1.00;;;;;;5117404;28;20459;-58
2022/06/19 03:10:35;;;;;;;17.70;11.77;;;20.00;1.00;;;;;;5135335;27;20465;-58
2022/06/19 03:13:02;;;;;;;17.93;11.53;;;20.00;1.00;;;;;;5137403;27;20761;-58
2022/06/19 03:15:30;;;;;;;13.67;10.80;;;20.00;1.00;;;;;;5128563;27;20463;-59
2022/06/19 03:18:00;;;;;;;15.90;11.93;;;20.00;1.00;;;;;;5117646;28;20459;-58
2022/06/19 03:20:28;;;;;;;14.63;10.60;;;19.80;1.00;;;;;;5117574;28;20466;-57
2022/06/19 03:22:55;;;;;;;13.07;10.60;;;19.90;1.00;;;;;;5117134;28;20821;-58
2022/06/19 03:25:23;;;;;;;12.40;10.50;;;19.90;1.00;;;;;;5120654;28;20549;-57
2022/06/19 03:27:52;;;;;;;21.40;12.70;;;19.90;1.00;;;;;;5138214;27;20467;-58
2022/06/19 03:30:21;;;;;;;17.33;10.93;;;19.90;1.00;;;;;;5135706;27;20461;-57
2022/06/19 03:32:50;;;;;;;19.43;10.90;;;19.90;1.00;;;;;;5138009;27;20848;-57
2022/06/19 03:35:18;;;;;;;11.93;10.40;;;20.00;1.00;;;;;;5137385;27;20482;-58
2022/06/19 03:37:46;;;;;;;10.60;9.60;;;19.90;1.00;;;;;;5119541;27;20486;-58
2022/06/19 03:40:14;;;;;;;13.07;9.73;;;19.80;1.00;;;;;;5134068;27;20522;-57
2022/06/19 03:42:41;;;;;;;11.23;10.20;;;19.70;1.00;;;;;;5120067;28;20465;-58
2022/06/19 03:45:09;;;;;;;9.23;8.33;;;19.50;1.00;;;;;;5121511;28;20799;-59
2022/06/19 03:47:36;;;;;;;9.83;8.00;;;19.40;1.00;;;;;;5134956;27;20433;-58
2022/06/19 03:50:06;;;;;;;8.60;7.80;;;19.40;1.00;;;;;;5141910;27;20450;-58
2022/06/19 03:52:33;;;;;;;8.10;7.30;;;19.40;1.00;;;;;;5141745;27;20432;-58
2022/06/19 03:55:00;;;;;;;9.83;8.00;;;19.40;1.00;;;;;;5141807;27;20465;-57
2022/06/19 03:57:27;;;;;;;7.97;7.30;;;19.40;1.00;;;;;;5131876;27;20772;-58
2022/06/19 03:59:54;;;;;;;10.33;7.80;;;19.10;1.00;;;;;;5121272;28;20461;-59
2022/06/19 04:02:23;;;;;;;9.73;7.33;;;19.00;1.00;;;;;;5135649;27;20458;-58
2022/06/19 04:04:50;;;;;;;7.17;6.47;;;18.80;1.00;;;;;;5141517;27;20561;-58
2022/06/19 04:07:19;;;;;;;8.90;7.23;;;18.80;1.00;;;;;;5136943;27;20491;-59
2022/06/19 04:09:46;;;;;;;11.10;7.13;;;18.80;1.00;;;;;;5121799;28;20483;-57
2022/06/19 04:12:13;;;;;;;7.00;6.30;;;18.70;1.00;;;;;;5120646;27;20459;-59
2022/06/19 04:14:41;;;;;;;7.90;6.10;;;18.70;1.00;;;;;;5120894;28;20464;-59
2022/06/19 04:17:08;;;;;;;8.50;6.20;;;18.60;1.00;;;;;;5120793;28;20463;-59
2022/06/19 04:19:38;;;;;;;7.23;6.27;;;18.60;1.00;;;;;;5121898;27;20487;-58
2022/06/19 04:22:05;;;;;;;6.17;5.40;;;18.50;1.00;;;;;;5139178;27;20461;-58
2022/06/19 04:24:34;;;;;;;7.20;5.53;;;18.70;1.00;;;;;;5140997;27;20458;-58
2022/06/19 04:27:07;;;;;;;6.53;5.97;;;18.50;1.00;;;;;;5141001;27;20462;-60
2022/06/19 04:29:37;;;;;;;10.07;5.70;;;18.30;1.00;;;;;;5141457;27;20764;-59
2022/06/19 04:32:05;;;;;;;6.03;5.43;;;18.20;1.00;;;;;;5125570;27;20438;-59
2022/06/19 04:34:32;;;;;;;7.33;4.87;;;18.20;1.00;;;;;;5120729;28;20795;-58
2022/06/19 04:36:59;;;;;;;5.70;5.20;;;18.10;1.00;;;;;;5120335;27;20459;-60
2022/06/19 04:39:26;;;;;;;5.23;4.70;;;18.10;1.00;;;;;;5120427;28;20491;-60
2022/06/19 04:41:55;;;;;;;6.63;4.97;;;17.90;1.00;;;;;;5129063;27;20461;-60
2022/06/19 04:44:24;;;;;;;10.23;4.97;;;17.90;1.00;;;;;;5140744;27;20466;-57
2022/06/19 04:46:54;;;;;;;5.97;4.70;;;17.90;1.00;;;;;;5139999;27;20441;-58
2022/06/19 04:49:21;;;;;;;7.07;4.40;;;18.00;1.00;;;;;;5140990;27;20450;-58
2022/06/19 04:51:48;;;;;;;6.00;4.80;;;17.80;1.00;;;;;;5135434;27;20441;-57
2022/06/19 04:54:15;;;;;;;7.10;4.80;;;18.00;1.00;;;;;;5120205;28;20438;-58
2022/06/19 04:56:46;;;;;;;10.83;4.33;;;17.90;1.00;;;;;;5119004;27;20979;-60
2022/06/19 04:59:14;;;;;;;7.07;4.27;;;17.80;1.00;;;;;;5120496;28;20488;-60
2022/06/19 05:01:44;;;;;;;7.70;4.90;;;17.60;1.00;;;;;;5119920;27;20467;-58
2022/06/19 05:04:13;;;;;;;7.70;4.90;;;17.50;99.90;;;;;;5119042;28;20471;-58
2022/06/19 05:06:40;;;;;;;11.47;4.30;;;17.50;99.90;;;;;;5119416;28;20462;-59
2022/06/19 05:09:10;;;;;;;6.53;4.50;;;17.40;99.90;;;;;;5120218;28;20456;-57
2022/06/19 05:11:38;;;;;;;8.80;4.97;;;17.60;99.90;;;;;;5120279;28;20510;-57
2022/06/19 05:14:08;;;;;;;8.00;3.73;;;17.70;99.90;;;;;;5135364;27;20444;-58
2022/06/19 05:16:40;;;;;;;7.13;3.90;;;17.90;99.90;;;;;;5139875;27;20490;-57
2022/06/19 05:19:07;;;;;;;8.60;4.33;;;18.00;99.90;;;;;;5140112;27;20486;-57
2022/06/19 05:21:34;;;;;;;9.20;4.00;;;17.70;99.90;;;;;;5140352;27;20445;-59
2022/06/19 05:24:01;;;;;;;9.17;4.30;;;17.80;99.90;;;;;;5126896;27;20820;-57
2022/06/19 05:26:34;;;;;;;6.63;4.07;;;17.70;99.90;;;;;;5119263;28;20434;-57
2022/06/19 05:29:02;;;;;;;7.97;4.60;;;17.80;99.90;;;;;;5120239;27;20478;-57
2022/06/19 05:31:31;;;;;;;8.60;4.20;;;17.90;99.90;;;;;;5119579;28;20459;-57
2022/06/19 05:34:01;;;;;;;8.00;4.27;;;18.00;99.90;;;;;;5126315;27;20458;-60
2022/06/19 05:36:31;;;;;;;9.40;4.60;;;18.00;99.90;;;;;;5139838;27;20868;-58
2022/06/19 05:38:58;;;;;;;14.13;5.53;;;17.90;99.90;;;;;;5137686;27;20498;-57
2022/06/19 05:41:30;;;;;;;8.40;5.10;;;18.00;99.90;;;;;;5141441;27;20441;-61
2022/06/19 05:43:58;;;;;;;7.93;4.73;;;17.80;99.90;;;;;;5138022;27;20489;-58
2022/06/19 05:46:25;;;;;;;11.10;4.70;;;17.90;99.90;;;;;;5121236;28;20467;-58
2022/06/19 05:48:55;;;;;;;8.87;4.30;;;17.90;99.90;;;;;;5120351;27;20464;-58
2022/06/19 05:51:26;;;;;;;11.20;4.47;;;18.20;99.90;;;;;;5120588;28;20779;-58
2022/06/19 05:53:55;;;;;;;16.80;5.83;;;18.40;99.90;;;;;;5119191;28;20441;-61
2022/06/19 05:56:23;;;;;;;9.03;4.27;;;17.80;99.90;;;;;;5128060;27;20466;-58
2022/06/19 05:58:51;;;;;;;13.87;4.97;;;17.50;99.90;;;;;;5120447;27;20455;-58
2022/06/19 06:01:24;;;;;;;9.80;4.43;;;17.90;99.90;;;;;;5122054;27;20479;-58
2022/06/19 06:03:55;;;;;;;10.53;4.07;;;18.20;99.90;;;;;;5140988;27;20778;-58
2022/06/19 06:06:25;;;;;;;7.60;4.50;;;18.20;99.90;;;;;;5140632;27;20463;-61
2022/06/19 06:09:01;;;;;;;10.37;4.03;;;17.80;99.90;;;;;;5141950;27;20875;-59
2022/06/19 06:11:28;;;;;;;12.60;4.50;;;17.90;99.90;;;;;;5137558;27;20511;-59
2022/06/19 06:13:55;;;;;;;8.40;4.63;;;18.00;99.90;;;;;;5118469;28;20466;-61
2022/06/19 06:16:23;;;;;;;11.17;4.97;;;18.30;99.90;;;;;;5118411;28;20532;-58
2022/06/19 06:18:50;;;;;;;11.83;4.63;;;18.80;99.90;;;;;;5118912;28;20880;-59
2022/06/19 06:21:20;;;;;;;8.33;4.10;;;18.90;99.90;;;;;;5118169;28;20879;-59
2022/06/19 06:23:49;;;;;;;9.33;5.10;;;19.00;99.90;;;;;;5134215;27;20463;-59
2022/06/19 06:26:18;;;;;;;8.77;4.30;;;19.20;99.90;;;;;;5138682;27;20458;-58
2022/06/19 06:28:48;;;;;;;13.63;5.23;;;19.60;99.90;;;;;;5139010;27;20731;-58
2022/06/19 06:31:19;;;;;;;12.23;4.57;;;19.70;99.90;;;;;;5138668;27;20490;-57
2022/06/19 06:33:47;;;;;;;8.73;4.60;;;19.90;99.90;;;;;;5125993;27;20455;-59
2022/06/19 06:36:14;;;;;;;10.00;4.57;;;20.10;99.90;;;;;;5118523;28;20851;-58
2022/06/19 06:38:42;;;;;;;7.73;4.60;;;19.90;99.90;;;;;;5117545;27;20459;-58
2022/06/19 06:41:14;;;;;;;11.07;4.80;;;20.20;99.90;;;;;;5117942;28;20936;-59
2022/06/19 06:43:46;;;;;;;15.07;5.33;;;20.50;99.90;;;;;;5117508;28;20856;-59
2022/06/19 06:46:19;;;;;;;12.67;5.20;;;20.80;99.90;;;;;;5117676;28;20495;-58
2022/06/19 06:48:47;;;;;;;11.30;4.90;;;21.00;99.90;;;;;;5117118;28;20876;-59
2022/06/19 06:51:19;;;;;;;14.03;4.77;;;21.20;99.90;;;;;;5117812;28;20775;-58
2022/06/19 06:53:47;;;;;;;15.77;6.03;;;21.40;99.90;;;;;;5121383;27;20458;-59
2022/06/19 06:56:15;;;;;;;8.13;4.17;;;21.50;99.90;;;;;;5138647;27;20531;-60
2022/06/19 06:58:45;;;;;;;10.00;4.50;;;21.60;99.90;;;;;;5138077;27;20455;-59
2022/06/19 07:01:16;;;;;;;9.73;5.20;;;21.80;99.90;;;;;;5137963;27;20490;-58
2022/06/19 07:03:46;;;;;;;8.70;4.80;;;22.00;99.90;;;;;;5138082;27;20491;-59
2022/06/19 07:06:13;;;;;;;8.83;4.93;;;22.30;99.90;;;;;;5117794;28;20462;-60
2022/06/19 07:08:41;;;;;;;9.53;5.10;;;22.60;99.90;;;;;;5117140;28;20768;-59
2022/06/19 07:11:14;;;;;;;12.43;4.97;;;22.60;99.90;;;;;;5117252;28;20430;-59
2022/06/19 07:13:46;;;;;;;10.50;4.20;;;22.90;99.90;;;;;;5117319;28;20461;-59
2022/06/19 07:16:13;;;;;;;7.50;5.43;;;23.20;99.90;;;;;;5116734;28;20466;-58
2022/06/19 07:18:44;;;;;;;10.20;4.60;;;23.50;99.90;;;;;;5117298;28;20459;-59
2022/06/19 07:21:12;;;;;;;7.07;4.40;;;23.40;99.90;;;;;;5116148;28;20491;-59
2022/06/19 07:23:40;;;;;;;8.97;4.93;;;22.80;99.90;;;;;;5117240;28;20582;-58
2022/06/19 07:26:11;;;;;;;9.13;5.40;;;23.20;99.90;;;;;;5130190;28;20469;-59
2022/06/19 07:28:40;;;;;;;10.30;5.00;;;24.10;99.90;;;;;;5138273;27;20810;-60
2022/06/19 07:31:09;;;;;;;10.07;4.60;;;24.10;99.90;;;;;;5137090;28;20462;-60
2022/06/19 07:33:37;;;;;;;10.77;5.13;;;24.60;99.90;;;;;;5137763;28;20462;-62
2022/06/19 07:36:06;;;;;;;8.73;4.90;;;24.60;99.90;;;;;;5128919;28;20468;-60
2022/06/19 07:38:33;;;;;;;6.77;4.03;;;24.80;99.90;;;;;;5116834;28;20927;-62
2022/06/19 07:41:00;;;;;;;7.77;5.00;;;24.60;99.90;;;;;;5123614;28;20483;-60
2022/06/19 07:43:28;;;;;;;10.37;4.97;;;23.80;99.90;;;;;;5116193;28;20455;-60
2022/06/19 07:45:55;;;;;;;12.13;5.40;;;24.00;99.90;;;;;;5118366;28;20490;-60
2022/06/19 07:51:09;;;;;;;10.37;5.03;;;23.20;99.90;;;;;;5135639;28;20603;-60
2022/06/19 07:53:38;;;;;;;9.93;4.50;;;22.70;99.90;;;;;;5137865;27;20462;-59
2022/06/19 07:56:05;;;;;;;14.30;5.83;;;22.40;99.90;;;;;;5136698;28;20518;-60
2022/06/19 07:58:35;;;;;;;9.53;4.97;;;21.50;99.90;;;;;;5115820;28;20774;-61
2022/06/19 08:01:05;;;;;;;12.90;4.43;;;21.50;99.90;;;;;;5117912;28;20483;-59
2022/06/19 08:03:35;;;;;;;14.53;5.03;;;21.50;99.90;;;;;;5116024;28;20456;-60
2022/06/19 08:06:02;;;;;;;10.60;4.90;;;21.50;99.90;;;;;;5117345;28;20466;-60
2022/06/19 08:08:32;;;;;;;10.70;5.20;;;21.50;99.90;;;;;;5132827;28;20922;-60
2022/06/19 08:11:02;;;;;;;11.93;5.10;;;21.60;99.90;;;;;;5136239;28;20535;-60
2022/06/19 08:13:31;;;;;;;10.93;4.30;;;22.20;99.90;;;;;;5137142;28;20458;-61
2022/06/19 08:16:02;;;;;;;8.30;4.80;;;21.80;99.90;;;;;;5137825;28;20751;-60
2022/06/19 08:18:30;;;;;;;8.20;4.30;;;22.30;99.90;;;;;;5123941;27;20471;-60
2022/06/19 08:20:59;;;;;;;11.73;5.10;;;22.80;99.90;;;;;;5126231;28;20486;-59
2022/06/19 08:23:28;;;;;;;10.07;4.10;;;22.90;99.90;;;;;;5138448;27;20795;-59
2022/06/19 08:25:55;;;;;;;10.90;4.10;;;23.60;99.90;;;;;;5141145;27;20459;-61
2022/06/19 08:28:28;;;;;;;13.53;4.90;;;23.10;99.90;;;;;;5141272;27;20469;-59
2022/06/19 08:30:57;;;;;;;11.03;4.83;;;23.10;99.90;;;;;;5136036;27;20483;-60
2022/06/19 08:33:24;;;;;;;11.40;4.47;;;23.90;99.90;;;;;;5120730;28;20463;-60
2022/06/19 08:35:57;;;;;;;11.60;4.93;;;23.40;99.90;;;;;;5120069;27;20466;-60
2022/06/19 08:38:33;;;;;;;11.97;5.50;;;23.20;99.90;;;;;;5120563;28;20460;-61
2022/06/19 08:41:35;;;;;;;13.17;6.73;;;23.50;99.90;;;;;;5121190;27;20800;-62
2022/06/19 08:44:27;;;;;;;7.90;4.67;;;23.60;99.90;;;;;;5135653;27;20507;-60
2022/06/19 08:47:08;;;;;;;10.30;5.10;;;23.30;99.90;;;;;;5120095;28;20558;-60
2022/06/19 08:49:47;;;;;;;12.97;5.20;;;22.70;99.90;;;;;;5120196;28;20483;-60
2022/06/19 08:52:27;;;;;;;13.33;6.70;;;23.00;99.90;;;;;;5119474;28;20459;-60
2022/06/19 08:55:05;;;;;;;10.90;5.70;;;23.30;99.90;;;;;;5120532;28;20487;-60
2022/06/19 08:57:43;;;;;;;12.53;6.63;;;24.00;99.90;;;;;;5135983;27;20454;-61
2022/06/19 09:00:17;;;;;;;11.53;6.87;;;23.30;99.90;;;;;;5140667;27;20486;-61
2022/06/19 09:03:01;;;;;;;14.20;6.77;;;22.80;99.90;;;;;;5140633;27;20911;-60
2022/06/19 09:05:44;;;;;;;13.80;6.47;;;23.00;99.90;;;;;;5140230;27;20465;-61
2022/06/19 09:08:50;;;;;;;15.07;7.03;;;22.90;99.90;;;;;;5121786;27;20794;-59
2022/06/19 09:11:33;;;;;;;11.33;5.77;;;23.20;99.90;;;;;;5119725;28;20520;-60
2022/06/19 09:14:12;;;;;;;15.40;5.60;;;24.00;99.90;;;;;;5119890;28;20440;-61
2022/06/19 09:16:41;;;;;;;14.07;6.00;;;25.00;99.90;;;;;;5120753;27;20459;-60
2022/06/19 09:19:14;;;;;;;9.57;5.80;;;23.70;99.90;;;;;;5120460;27;20803;-59
2022/06/19 09:22:08;;;;;;;12.10;5.83;;;24.40;99.90;;;;;;5120033;27;20483;-61
2022/06/19 09:25:04;;;;;;;14.60;7.63;;;24.50;99.90;;;;;;5118987;28;20433;-59
2022/06/19 09:27:41;;;;;;;13.00;6.80;;;25.00;99.90;;;;;;5123668;27;20451;-61
2022/06/19 09:30:14;;;;;;;14.80;6.20;;;23.70;99.90;;;;;;5140165;27;20458;-59
2022/06/19 09:32:47;;;;;;;14.80;7.07;;;23.40;99.90;;;;;;5139740;27;20476;-60
2022/06/19 09:35:17;;;;;;;13.33;7.00;;;22.20;99.90;;;;;;5138534;27;20454;-60
2022/06/19 09:37:50;;;;;;;10.47;6.60;;;21.90;99.90;;;;;;5136588;27;20463;-59
2022/06/19 09:40:24;;;;;;;17.67;6.67;;;22.30;99.90;;;;;;5119716;28;20494;-59
2022/06/19 09:42:59;;;;;;;17.47;6.77;;;22.90;99.90;;;;;;5123070;27;20458;-60
2022/06/19 09:45:30;;;;;;;14.00;6.17;;;23.40;99.90;;;;;;5138853;27;20454;-61
2022/06/19 09:48:06;;;;;;;14.03;6.40;;;23.60;99.90;;;;;;5137530;27;20742;-59
2022/06/19 09:50:37;;;;;;;12.47;6.30;;;23.60;99.90;;;;;;5137392;27;20450;-60
2022/06/19 09:53:10;;;;;;;11.67;6.37;;;23.70;99.90;;;;;;5137818;27;20458;-60
2022/06/19 09:55:44;;;;;;;12.20;5.83;;;24.00;99.90;;;;;;5118834;28;20495;-59
2022/06/19 09:58:19;;;;;;;11.50;6.47;;;23.50;99.90;;;;;;5118649;28;20503;-59
2022/06/19 10:00:50;;;;;;;18.87;7.13;;;23.00;99.90;;;;;;5118237;28;20954;-60
2022/06/19 10:03:28;;;;;;;11.53;6.77;;;23.30;99.90;;;;;;5117077;27;20468;-60
2022/06/19 10:06:02;;;;;;;12.60;6.23;;;23.20;99.90;;;;;;5117541;28;20463;-59
2022/06/19 10:08:36;;;;;;;7.97;5.60;;;24.10;99.90;;;;;;5121923;27;20547;-60
2022/06/19 10:11:09;;;;;;;14.03;7.07;;;25.00;99.90;;;;;;5129454;27;20824;-61
2022/06/19 10:13:47;;;;;;;11.97;6.67;;;25.50;99.90;;;;;;5126452;27;20895;-59
2022/06/19 10:16:24;;;;;;;11.47;6.47;;;25.90;99.90;;;;;;5133699;27;20917;-60
2022/06/19 10:18:55;;;;;;;12.20;6.73;;;26.40;99.90;;;;;;5135877;27;20474;-60
2022/06/19 10:24:24;;;;;;;10.80;6.10;;;26.50;99.90;;;;;;5119326;27;20938;-60
2022/06/19 10:27:10;;;;;;;14.90;7.23;;;26.30;99.90;;;;;;5118058;28;20498;-60
2022/06/19 10:29:59;;;;;;;10.30;5.80;;;25.80;99.90;;;;;;5117976;28;20557;-61
2022/06/19 10:32:49;;;;;;;11.33;6.57;;;25.50;99.90;;;;;;5118043;28;20868;-60
2022/06/19 10:35:25;;;;;;;11.73;6.83;;;24.90;99.90;;;;;;5118244;27;20470;-58
2022/06/19 10:38:04;;;;;;;16.60;6.20;;;24.40;99.90;;;;;;5135698;27;20566;-60
2022/06/19 10:40:41;;;;;;;13.80;6.90;;;23.80;99.90;;;;;;5138900;27;20458;-60
2022/06/19 10:43:27;;;;;;;14.93;7.07;;;23.00;99.90;;;;;;5117774;28;20466;-61
2022/06/19 10:45:58;;;;;;;15.10;6.20;;;22.60;99.90;;;;;;5117548;28;20875;-60
2022/06/19 10:48:37;;;;;;;10.30;5.50;;;22.60;99.90;;;;;;5117949;28;20913;-61
2022/06/19 10:51:25;;;;;;;12.73;6.33;;;22.60;99.90;;;;;;5116767;28;20462;-60
2022/06/19 10:54:17;;;;;;;13.17;5.43;;;22.60;99.90;;;;;;5117586;28;20438;-60
2022/06/19 10:56:52;;;;;;;12.83;6.27;;;23.10;99.90;;;;;;5112985;28;20474;-58
2022/06/19 10:59:23;;;;;;;11.43;5.60;;;23.40;99.90;;;;;;5117576;28;20544;-59
2022/06/19 11:04:59;;;;;;;14.93;5.70;;;24.60;99.90;;;;;;5137617;27;20847;-61
2022/06/19 11:07:27;;;;;;;8.77;5.80;;;24.90;99.90;;;;;;5138097;27;20462;-60
2022/06/19 11:09:57;;;;;;;13.50;5.90;;;25.40;99.90;;;;;;5138161;27;20827;-60
2022/06/19 11:12:32;;;;;;;10.70;6.27;;;25.00;99.90;;;;;;5130042;27;20448;-60
2022/06/19 11:15:02;;;;;;;13.27;6.60;;;24.70;99.90;;;;;;5117736;28;20459;-60
2022/06/19 11:17:34;;;;;;;15.13;6.63;;;24.80;99.90;;;;;;5118093;28;20471;-60
2022/06/19 11:20:24;;;;;;;11.70;7.27;;;24.80;99.90;;;;;;5117496;28;20460;-60
2022/06/19 11:23:00;;;;;;;13.97;6.53;;;25.20;99.90;;;;;;5118379;28;20586;-60
2022/06/19 11:25:35;;;;;;;14.13;6.23;;;25.90;99.90;;;;;;5118221;28;20463;-59
2022/06/19 11:28:08;;;;;;;14.13;6.67;;;26.50;99.90;;;;;;5118514;28;20955;-59
2022/06/19 11:30:37;;;;;;;12.57;6.97;;;26.30;99.90;;;;;;5117954;28;20459;-60
2022/06/19 11:33:11;;;;;;;14.53;7.13;;;26.10;99.90;;;;;;5117378;28;20486;-60
2022/06/19 11:35:41;;;;;;;10.87;6.17;;;24.90;99.90;;;;;;5117493;28;20462;-60
2022/06/19 11:38:13;;;;;;;11.93;6.07;;;25.00;99.90;;;;;;5129039;28;20458;-60
2022/06/19 11:40:49;;;;;;;12.47;6.47;;;25.20;99.90;;;;;;5137979;27;20429;-59
2022/06/19 11:43:27;;;;;;;11.93;6.20;;;26.30;99.90;;;;;;5133645;27;20959;-59
2022/06/19 11:46:06;;;;;;;10.20;7.30;;;27.50;99.90;;;;;;5117348;28;20470;-60
2022/06/19 11:48:35;;;;;;;13.60;7.30;;;28.00;99.90;;;;;;5117461;28;20470;-59
2022/06/19 11:51:03;;;;;;;10.30;7.03;;;27.50;99.90;;;;;;5117064;28;20452;-59
2022/06/19 11:53:39;;;;;;;12.37;7.20;;;27.10;99.90;;;;;;5117895;28;20474;-58
2022/06/19 11:56:26;;;;;;;10.40;6.53;;;26.00;99.90;;;;;;5117940;28;20459;-59
2022/06/19 11:59:02;;;;;;;13.80;6.63;;;25.70;99.90;;;;;;5120763;27;20455;-59
2022/06/19 12:01:38;;;;;;;13.13;7.30;;;25.10;99.90;;;;;;5121053;28;20498;-59
2022/06/19 12:04:18;;;;;;;12.77;7.50;;;25.00;99.90;;;;;;5124346;27;20465;-59
2022/06/19 12:06:51;;;;;;;11.83;7.97;;;24.50;99.90;;;;;;5141141;27;20458;-58
2022/06/19 12:09:43;;;;;;;14.20;7.77;;;24.60;99.90;;;;;;5141058;27;20459;-60
2022/06/19 12:12:19;;;;;;;11.30;6.60;;;24.40;99.90;;;;;;5141671;27;20455;-58
2022/06/19 12:15:03;;;;;;;17.40;7.70;;;23.60;99.90;;;;;;5136502;27;20455;-58
2022/06/19 12:17:39;;;;;;;18.30;7.70;;;23.90;99.90;;;;;;5120871;28;20513;-60
2022/06/19 12:20:25;;;;;;;14.33;7.60;;;24.20;99.90;;;;;;5121623;27;20459;-60
2022/06/19 12:22:56;;;;;;;14.90;7.10;;;24.90;99.90;;;;;;5120220;28;20552;-59
2022/06/19 12:25:37;;;;;;;10.03;6.00;;;24.50;99.90;;;;;;5126638;27;20455;-60
2022/06/19 12:28:12;;;;;;;10.53;6.33;;;24.30;99.90;;;;;;5141216;27;20458;-60
2022/06/19 12:30:45;;;;;;;11.10;6.33;;;24.40;99.90;;;;;;5136337;27;20527;-59
2022/06/19 12:33:19;;;;;;;11.17;5.73;;;24.50;99.90;;;;;;5140030;27;20462;-60
2022/06/19 12:35:52;;;;;;;12.70;6.50;;;25.10;99.90;;;;;;5138752;27;20460;-58
2022/06/19 12:38:23;;;;;;;14.67;6.33;;;25.60;99.90;;;;;;5126442;27;20446;-59
2022/06/19 12:41:15;;;;;;;15.43;6.17;;;25.90;99.90;;;;;;5129883;27;20501;-59
2022/06/19 12:43:55;;;;;;;10.70;5.27;;;25.70;99.90;;;;;;5140095;27;20458;-61
2022/06/19 12:46:31;;;;;;;15.27;5.70;;;25.50;99.90;;;;;;5133879;27;20880;-59
2022/06/19 12:49:11;;;;;;;13.13;6.20;;;25.70;99.90;;;;;;5123187;27;20467;-59
2022/06/19 12:51:53;;;;;;;11.83;5.70;;;25.70;99.90;;;;;;5135722;27;20489;-61
2022/06/19 12:54:53;;;;;;;8.20;5.27;;;25.60;99.90;;;;;;5140704;27;20492;-61
2022/06/19 12:57:41;;;;;;;13.30;6.87;;;25.30;99.90;;;;;;5129105;27;20915;-59
2022/06/19 13:00:19;;;;;;;10.17;5.70;;;25.70;99.90;;;;;;5119748;28;20461;-60
2022/06/19 13:03:23;;;;;;;11.23;6.60;;;25.90;99.90;;;;;;5130706;27;20961;-61
2022/06/19 13:06:08;;;;;;;13.30;5.83;;;26.30;99.90;;;;;;5138012;27;20756;-60
2022/06/19 13:08:46;;;;;;;11.87;5.30;;;26.00;99.90;;;;;;5130766;27;20852;-60
2022/06/19 13:11:29;;;;;;;10.20;5.67;;;25.80;99.90;;;;;;5134568;27;20754;-60
2022/06/19 13:14:08;;;;;;;14.03;7.20;;;25.00;99.90;;;;;;5136355;27;20853;-61
2022/06/19 13:16:42;;;;;;;9.60;5.50;;;25.20;99.90;;;;;;5136372;27;20456;-60